sensor_id;sensor_type;location;lat;lon;timestamp;pressure;altitude;pressure_sealevel;temperature;humidity
70407;BME280;57821;52.202;0.154;2023-12-04T00:00:32;100426.03;;;8.16;98.93
70407;BME280;57821;52.202;0.154;2023-12-04T00:02:59;100411.41;;;8.14;98.21
70407;BME280;57821;52.202;0.154;2023-12-04T00:05:26;100397.63;;;8.10;98.52
70407;BME280;57821;52.202;0.154;2023-12-04T00:07:52;100389.88;;;8.10;98.74
70407;BME280;57821;52.202;0.154;2023-12-04T00:10:20;100379.56;;;8.07;98.72
70407;BME280;57821;52.202;0.154;2023-12-04T00:12:46;100383.84;;;8.07;98.35
70407;BME280;57821;52.202;0.154;2023-12-04T00:15:13;100383.00;;;8.06;98.25
70407;BME280;57821;52.202;0.154;2023-12-04T00:17:40;100385.56;;;8.11;98.44
70407;BME280;57821;52.202;0.154;2023-12-04T00:20:08;100399.34;;;8.17;98.19
70407;BME280;57821;52.202;0.154;2023-12-04T00:22:38;100367.53;;;8.03;98.88
70407;BME280;57821;52.202;0.154;2023-12-04T00:25:06;100389.88;;;8.16;98.34
70407;BME280;57821;52.202;0.154;2023-12-04T00:27:33;100381.28;;;8.13;98.85
70407;BME280;57821;52.202;0.154;2023-12-04T00:30:00;100364.91;;;8.00;98.25
70407;BME280;57821;52.202;0.154;2023-12-04T00:32:27;100346.84;;;7.94;98.44
70407;BME280;57821;52.202;0.154;2023-12-04T00:34:53;100366.66;;;8.07;98.16
70407;BME280;57821;52.202;0.154;2023-12-04T00:37:20;100332.19;;;7.87;98.48
70407;BME280;57821;52.202;0.154;2023-12-04T00:39:47;100348.56;;;7.97;98.38
70407;BME280;57821;52.202;0.154;2023-12-04T00:42:13;100338.22;;;7.92;98.49
70407;BME280;57821;52.202;0.154;2023-12-04T00:44:40;100344.28;;;7.97;98.25
70407;BME280;57821;52.202;0.154;2023-12-04T00:47:07;100358.91;;;8.01;98.02
70407;BME280;57821;52.202;0.154;2023-12-04T00:49:33;100347.72;;;8.01;98.34
70407;BME280;57821;52.202;0.154;2023-12-04T00:52:00;100342.53;;;8.01;98.13
70407;BME280;57821;52.202;0.154;2023-12-04T00:54:27;100328.78;;;7.94;98.27
70407;BME280;57821;52.202;0.154;2023-12-04T00:56:54;100314.16;;;7.92;98.48
70407;BME280;57821;52.202;0.154;2023-12-04T00:59:21;100290.91;;;7.76;98.71
70407;BME280;57821;52.202;0.154;2023-12-04T01:01:47;100315.84;;;7.88;97.99
70407;BME280;57821;52.202;0.154;2023-12-04T01:04:14;100320.19;;;7.91;98.07
70407;BME280;57821;52.202;0.154;2023-12-04T01:06:41;100301.25;;;7.86;98.20
70407;BME280;57821;52.202;0.154;2023-12-04T01:09:07;100308.13;;;7.88;98.08
70407;BME280;57821;52.202;0.154;2023-12-04T01:11:34;100296.94;;;7.77;98.14
70407;BME280;57821;52.202;0.154;2023-12-04T01:14:03;100281.47;;;7.74;97.77
70407;BME280;57821;52.202;0.154;2023-12-04T01:16:29;100288.31;;;7.75;98.06
70407;BME280;57821;52.202;0.154;2023-12-04T01:18:58;100298.66;;;7.81;98.36
70407;BME280;57821;52.202;0.154;2023-12-04T01:21:25;100293.50;;;7.79;98.12
70407;BME280;57821;52.202;0.154;2023-12-04T01:23:52;100278.84;;;7.75;98.05
70407;BME280;57821;52.202;0.154;2023-12-04T01:26:19;100267.66;;;7.69;97.12
70407;BME280;57821;52.202;0.154;2023-12-04T01:28:45;100279.75;;;7.73;97.59
70407;BME280;57821;52.202;0.154;2023-12-04T01:31:12;100275.41;;;7.70;97.39
70407;BME280;57821;52.202;0.154;2023-12-04T01:33:39;100276.28;;;7.68;97.91
70407;BME280;57821;52.202;0.154;2023-12-04T01:36:06;100265.97;;;7.65;98.15
70407;BME280;57821;52.202;0.154;2023-12-04T01:38:33;100270.25;;;7.60;98.10
70407;BME280;57821;52.202;0.154;2023-12-04T01:40:59;100265.97;;;7.60;97.55
70407;BME280;57821;52.202;0.154;2023-12-04T01:43:26;100267.69;;;7.60;97.61
70407;BME280;57821;52.202;0.154;2023-12-04T01:45:54;100253.06;;;7.50;97.64
70407;BME280;57821;52.202;0.154;2023-12-04T01:48:22;100265.94;;;7.53;97.88
70407;BME280;57821;52.202;0.154;2023-12-04T01:50:49;100259.06;;;7.52;97.59
70407;BME280;57821;52.202;0.154;2023-12-04T01:53:16;100253.06;;;7.48;97.34
70407;BME280;57821;52.202;0.154;2023-12-04T01:55:43;100259.06;;;7.46;96.76
70407;BME280;57821;52.202;0.154;2023-12-04T01:58:11;100234.97;;;7.31;96.83
70407;BME280;57821;52.202;0.154;2023-12-04T02:00:38;100237.56;;;7.30;96.97
70407;BME280;57821;52.202;0.154;2023-12-04T02:03:05;100245.31;;;7.33;97.40
70407;BME280;57821;52.202;0.154;2023-12-04T02:05:33;100226.38;;;7.20;96.46
70407;BME280;57821;52.202;0.154;2023-12-04T02:08:02;100208.28;;;7.07;97.04
70407;BME280;57821;52.202;0.154;2023-12-04T02:10:29;100237.53;;;7.24;96.29
70407;BME280;57821;52.202;0.154;2023-12-04T02:12:58;100230.66;;;7.15;96.41
70407;BME280;57821;52.202;0.154;2023-12-04T02:15:25;100233.25;;;7.15;96.42
70407;BME280;57821;52.202;0.154;2023-12-04T02:17:51;100217.75;;;7.06;96.74
70407;BME280;57821;52.202;0.154;2023-12-04T02:20:18;100228.06;;;7.06;96.39
70407;BME280;57821;52.202;0.154;2023-12-04T02:22:45;100219.47;;;6.98;95.65
70407;BME280;57821;52.202;0.154;2023-12-04T02:25:12;100222.00;;;6.95;96.22
70407;BME280;57821;52.202;0.154;2023-12-04T02:28:01;100217.72;;;6.95;96.18
70407;BME280;57821;52.202;0.154;2023-12-04T02:30:30;100214.28;;;6.92;96.25
70407;BME280;57821;52.202;0.154;2023-12-04T02:32:59;100214.28;;;6.89;96.11
70407;BME280;57821;52.202;0.154;2023-12-04T02:35:31;100166.97;;;6.67;95.75
70407;BME280;57821;52.202;0.154;2023-12-04T02:38:02;100200.50;;;6.82;96.12
70407;BME280;57821;52.202;0.154;2023-12-04T02:40:29;100207.38;;;6.79;96.04
70407;BME280;57821;52.202;0.154;2023-12-04T02:42:56;100190.19;;;6.75;95.63
70407;BME280;57821;52.202;0.154;2023-12-04T02:45:23;100188.44;;;6.71;96.08
70407;BME280;57821;52.202;0.154;2023-12-04T02:47:50;100181.59;;;6.68;96.45
70407;BME280;57821;52.202;0.154;2023-12-04T02:50:17;100169.53;;;6.59;96.39
70407;BME280;57821;52.202;0.154;2023-12-04T02:52:43;100166.09;;;6.60;96.30
70407;BME280;57821;52.202;0.154;2023-12-04T02:55:10;100165.22;;;6.58;96.96
70407;BME280;57821;52.202;0.154;2023-12-04T02:57:37;100164.34;;;6.53;96.43
70407;BME280;57821;52.202;0.154;2023-12-04T03:00:04;100158.34;;;6.48;96.28
70407;BME280;57821;52.202;0.154;2023-12-04T03:02:31;100165.22;;;6.49;95.78
70407;BME280;57821;52.202;0.154;2023-12-04T03:04:58;100129.13;;;6.34;96.13
70407;BME280;57821;52.202;0.154;2023-12-04T03:07:24;100143.72;;;6.40;95.98
70407;BME280;57821;52.202;0.154;2023-12-04T03:09:53;100138.53;;;6.32;96.85
70407;BME280;57821;52.202;0.154;2023-12-04T03:12:20;100135.13;;;6.33;96.50
70407;BME280;57821;52.202;0.154;2023-12-04T03:14:46;100116.19;;;6.25;96.01
70407;BME280;57821;52.202;0.154;2023-12-04T03:17:13;100117.91;;;6.26;96.55
70407;BME280;57821;52.202;0.154;2023-12-04T03:19:40;100130.81;;;6.32;97.27
70407;BME280;57821;52.202;0.154;2023-12-04T03:22:07;100122.22;;;6.30;95.97
70407;BME280;57821;52.202;0.154;2023-12-04T03:24:33;100120.50;;;6.28;96.75
70407;BME280;57821;52.202;0.154;2023-12-04T03:27:00;100105.88;;;6.25;96.79
70407;BME280;57821;52.202;0.154;2023-12-04T03:29:27;100107.63;;;6.23;96.21
70407;BME280;57821;52.202;0.154;2023-12-04T03:31:53;100081.84;;;6.14;96.08
70407;BME280;57821;52.202;0.154;2023-12-04T03:34:20;100100.72;;;6.21;96.82
70407;BME280;57821;52.202;0.154;2023-12-04T03:36:47;100089.56;;;6.18;96.07
70407;BME280;57821;52.202;0.154;2023-12-04T03:39:13;100086.13;;;6.18;96.87
70407;BME280;57821;52.202;0.154;2023-12-04T03:41:40;100083.53;;;6.12;96.90
70407;BME280;57821;52.202;0.154;2023-12-04T03:44:07;100069.78;;;6.07;96.10
70407;BME280;57821;52.202;0.154;2023-12-04T03:46:33;100076.66;;;6.12;97.06
70407;BME280;57821;52.202;0.154;2023-12-04T03:49:00;100071.53;;;6.11;96.90
70407;BME280;57821;52.202;0.154;2023-12-04T03:51:27;100058.63;;;6.03;96.63
70407;BME280;57821;52.202;0.154;2023-12-04T03:53:54;100062.09;;;6.05;96.27
70407;BME280;57821;52.202;0.154;2023-12-04T03:56:20;100042.31;;;5.97;97.17
70407;BME280;57821;52.202;0.154;2023-12-04T03:58:47;100030.28;;;5.93;96.60
70407;BME280;57821;52.202;0.154;2023-12-04T04:01:14;100013.03;;;5.78;96.82
70407;BME280;57821;52.202;0.154;2023-12-04T04:03:40;100045.75;;;6.02;96.47
70407;BME280;57821;52.202;0.154;2023-12-04T04:06:11;100035.47;;;5.99;96.15
70407;BME280;57821;52.202;0.154;2023-12-04T04:08:38;100040.59;;;6.00;97.39
70407;BME280;57821;52.202;0.154;2023-12-04T04:11:05;100023.47;;;5.99;95.93
70407;BME280;57821;52.202;0.154;2023-12-04T04:13:33;100021.72;;;5.97;96.00
70407;BME280;57821;52.202;0.154;2023-12-04T04:16:00;100010.53;;;5.90;96.30
70407;BME280;57821;52.202;0.154;2023-12-04T04:18:27;100013.13;;;5.90;96.72
70407;BME280;57821;52.202;0.154;2023-12-04T04:20:54;100020.88;;;5.93;96.23
70407;BME280;57821;52.202;0.154;2023-12-04T04:23:20;100011.41;;;5.91;97.13
70407;BME280;57821;52.202;0.154;2023-12-04T04:25:47;100002.81;;;5.89;96.55
70407;BME280;57821;52.202;0.154;2023-12-04T04:28:14;100003.66;;;5.86;96.87
70407;BME280;57821;52.202;0.154;2023-12-04T04:30:40;99995.06;;;5.86;97.06
70407;BME280;57821;52.202;0.154;2023-12-04T04:33:07;99978.75;;;5.81;97.13
70407;BME280;57821;52.202;0.154;2023-12-04T04:35:34;99976.16;;;5.77;97.26
70407;BME280;57821;52.202;0.154;2023-12-04T04:38:01;99987.34;;;5.86;96.04
70407;BME280;57821;52.202;0.154;2023-12-04T04:40:27;99976.22;;;5.82;96.21
70407;BME280;57821;52.202;0.154;2023-12-04T04:42:54;99985.63;;;5.85;96.53
70407;BME280;57821;52.202;0.154;2023-12-04T04:45:21;99983.91;;;5.85;96.67
70407;BME280;57821;52.202;0.154;2023-12-04T04:47:48;99931.56;;;5.63;96.24
70407;BME280;57821;52.202;0.154;2023-12-04T04:50:14;99935.81;;;5.66;96.09
70407;BME280;57821;52.202;0.154;2023-12-04T04:52:41;99963.31;;;5.81;97.23
70407;BME280;57821;52.202;0.154;2023-12-04T04:55:08;99929.84;;;5.67;96.54
70407;BME280;57821;52.202;0.154;2023-12-04T04:57:35;99954.75;;;5.82;97.14
70407;BME280;57821;52.202;0.154;2023-12-04T05:00:03;99944.44;;;5.75;96.12
70407;BME280;57821;52.202;0.154;2023-12-04T05:02:37;99931.56;;;5.71;96.89
70407;BME280;57821;52.202;0.154;2023-12-04T05:05:04;99943.59;;;5.76;97.03
70407;BME280;57821;52.202;0.154;2023-12-04T05:07:31;99923.84;;;5.63;96.88
70407;BME280;57821;52.202;0.154;2023-12-04T05:09:58;99919.56;;;5.68;96.97
70407;BME280;57821;52.202;0.154;2023-12-04T05:12:24;99911.00;;;5.68;96.53
70407;BME280;57821;52.202;0.154;2023-12-04T05:14:51;99937.56;;;5.77;96.73
70407;BME280;57821;52.202;0.154;2023-12-04T05:17:18;99932.44;;;5.77;96.48
70407;BME280;57821;52.202;0.154;2023-12-04T05:19:44;99925.59;;;5.76;97.49
70407;BME280;57821;52.202;0.154;2023-12-04T05:22:11;99916.13;;;5.71;97.37
70407;BME280;57821;52.202;0.154;2023-12-04T05:24:38;99921.28;;;5.77;97.93
70407;BME280;57821;52.202;0.154;2023-12-04T05:27:05;99923.84;;;5.77;97.63
70407;BME280;57821;52.202;0.154;2023-12-04T05:29:31;99915.28;;;5.75;96.95
70407;BME280;57821;52.202;0.154;2023-12-04T05:31:58;99881.81;;;5.61;97.06
70407;BME280;57821;52.202;0.154;2023-12-04T05:34:25;99901.56;;;5.74;97.52
70407;BME280;57821;52.202;0.154;2023-12-04T05:36:51;99906.72;;;5.77;97.29
70407;BME280;57821;52.202;0.154;2023-12-04T05:39:18;99878.38;;;5.61;97.94
70407;BME280;57821;52.202;0.154;2023-12-04T05:41:45;99871.53;;;5.61;97.47
70407;BME280;57821;52.202;0.154;2023-12-04T05:44:11;99867.25;;;5.60;98.05
70407;BME280;57821;52.202;0.154;2023-12-04T05:46:38;99889.53;;;5.66;97.80
70407;BME280;57821;52.202;0.154;2023-12-04T05:49:05;99885.28;;;5.65;97.02
70407;BME280;57821;52.202;0.154;2023-12-04T05:51:31;99903.28;;;5.75;97.47
70407;BME280;57821;52.202;0.154;2023-12-04T05:54:01;99882.69;;;5.63;97.30
70407;BME280;57821;52.202;0.154;2023-12-04T05:56:27;99897.28;;;5.73;96.94
70407;BME280;57821;52.202;0.154;2023-12-04T05:58:54;99861.22;;;5.54;96.60
70407;BME280;57821;52.202;0.154;2023-12-04T06:01:21;99887.84;;;5.68;97.15
70407;BME280;57821;52.202;0.154;2023-12-04T06:03:47;99883.53;;;5.67;96.90
70407;BME280;57821;52.202;0.154;2023-12-04T06:06:14;99884.41;;;5.67;97.30
70407;BME280;57821;52.202;0.154;2023-12-04T06:08:41;99884.44;;;5.70;97.55
70407;BME280;57821;52.202;0.154;2023-12-04T06:11:08;99890.41;;;5.69;97.06
70407;BME280;57821;52.202;0.154;2023-12-04T06:13:34;99856.09;;;5.51;96.12
70407;BME280;57821;52.202;0.154;2023-12-04T06:16:01;99879.25;;;5.67;97.21
70407;BME280;57821;52.202;0.154;2023-12-04T06:18:28;99879.28;;;5.64;96.40
70407;BME280;57821;52.202;0.154;2023-12-04T06:20:55;99872.38;;;5.60;95.79
70407;BME280;57821;52.202;0.154;2023-12-04T06:23:22;99880.13;;;5.63;96.52
70407;BME280;57821;52.202;0.154;2023-12-04T06:25:49;99862.09;;;5.53;96.17
70407;BME280;57821;52.202;0.154;2023-12-04T06:28:16;99862.09;;;5.51;95.91
70407;BME280;57821;52.202;0.154;2023-12-04T06:30:43;99871.53;;;5.58;95.83
70407;BME280;57821;52.202;0.154;2023-12-04T06:33:10;99864.69;;;5.57;96.02
70407;BME280;57821;52.202;0.154;2023-12-04T06:35:37;99850.06;;;5.49;95.81
70407;BME280;57821;52.202;0.154;2023-12-04T06:38:07;99855.25;;;5.56;96.66
70407;BME280;57821;52.202;0.154;2023-12-04T06:40:34;99853.50;;;5.55;96.83
70407;BME280;57821;52.202;0.154;2023-12-04T06:43:01;99844.94;;;5.49;96.59
70407;BME280;57821;52.202;0.154;2023-12-04T06:45:28;99856.94;;;5.51;96.54
70407;BME280;57821;52.202;0.154;2023-12-04T06:47:56;99850.94;;;5.51;96.15
70407;BME280;57821;52.202;0.154;2023-12-04T06:50:23;99842.34;;;5.49;96.73
70407;BME280;57821;52.202;0.154;2023-12-04T06:52:50;99828.63;;;5.42;95.72
70407;BME280;57821;52.202;0.154;2023-12-04T06:55:17;99844.06;;;5.48;96.14
70407;BME280;57821;52.202;0.154;2023-12-04T06:57:44;99819.19;;;5.32;96.43
70407;BME280;57821;52.202;0.154;2023-12-04T07:00:11;99837.22;;;5.47;96.88
70407;BME280;57821;52.202;0.154;2023-12-04T07:02:49;99838.06;;;5.48;97.04
70407;BME280;57821;52.202;0.154;2023-12-04T07:05:17;99809.78;;;5.34;95.90
70407;BME280;57821;52.202;0.154;2023-12-04T07:07:44;99820.06;;;5.45;96.65
70407;BME280;57821;52.202;0.154;2023-12-04T07:10:11;99819.25;;;5.47;97.03
70407;BME280;57821;52.202;0.154;2023-12-04T07:12:42;99802.06;;;5.37;97.30
70407;BME280;57821;52.202;0.154;2023-12-04T07:15:10;99796.91;;;5.38;97.60
70407;BME280;57821;52.202;0.154;2023-12-04T07:17:39;99810.66;;;5.51;97.00
70407;BME280;57821;52.202;0.154;2023-12-04T07:20:06;99807.25;;;5.52;97.66
70407;BME280;57821;52.202;0.154;2023-12-04T07:22:33;99801.25;;;5.52;97.69
70407;BME280;57821;52.202;0.154;2023-12-04T07:25:05;99808.09;;;5.56;98.04
70407;BME280;57821;52.202;0.154;2023-12-04T07:27:34;99785.81;;;5.52;98.35
70407;BME280;57821;52.202;0.154;2023-12-04T07:30:02;99813.22;;;5.60;97.48
70407;BME280;57821;52.202;0.154;2023-12-04T07:32:29;99800.38;;;5.50;97.50
70407;BME280;57821;52.202;0.154;2023-12-04T07:34:56;99815.81;;;5.60;98.31
70407;BME280;57821;52.202;0.154;2023-12-04T07:37:23;99808.09;;;5.60;97.30
70407;BME280;57821;52.202;0.154;2023-12-04T07:39:50;99796.94;;;5.55;98.54
70407;BME280;57821;52.202;0.154;2023-12-04T07:42:16;99816.66;;;5.71;98.52
70407;BME280;57821;52.202;0.154;2023-12-04T07:44:44;99818.41;;;5.69;98.34
70407;BME280;57821;52.202;0.154;2023-12-04T07:47:10;99806.38;;;5.65;97.52
70407;BME280;57821;52.202;0.154;2023-12-04T07:49:37;99819.28;;;5.76;98.14
70407;BME280;57821;52.202;0.154;2023-12-04T07:52:04;99814.97;;;5.78;98.07
70407;BME280;57821;52.202;0.154;2023-12-04T07:54:31;99816.69;;;5.81;97.60
70407;BME280;57821;52.202;0.154;2023-12-04T07:56:59;99810.69;;;5.82;98.28
70407;BME280;57821;52.202;0.154;2023-12-04T07:59:26;99813.28;;;5.82;97.61
70407;BME280;57821;52.202;0.154;2023-12-04T08:01:52;99793.53;;;5.71;97.73
70407;BME280;57821;52.202;0.154;2023-12-04T08:04:19;99801.25;;;5.84;98.67
70407;BME280;57821;52.202;0.154;2023-12-04T08:06:46;99804.69;;;5.84;97.71
70407;BME280;57821;52.202;0.154;2023-12-04T08:09:13;99787.53;;;5.80;97.53
70407;BME280;57821;52.202;0.154;2023-12-04T08:11:39;99797.84;;;5.89;98.31
70407;BME280;57821;52.202;0.154;2023-12-04T08:14:06;99810.72;;;5.91;98.00
70407;BME280;57821;52.202;0.154;2023-12-04T08:16:33;99804.72;;;5.89;97.89
70407;BME280;57821;52.202;0.154;2023-12-04T08:19:00;99803.88;;;5.93;97.40
70407;BME280;57821;52.202;0.154;2023-12-04T08:21:26;99790.13;;;5.86;98.08
70407;BME280;57821;52.202;0.154;2023-12-04T08:23:53;99797.88;;;5.94;97.52
70407;BME280;57821;52.202;0.154;2023-12-04T08:26:24;99795.31;;;5.94;97.79
70407;BME280;57821;52.202;0.154;2023-12-04T08:28:51;99774.69;;;5.82;97.15
70407;BME280;57821;52.202;0.154;2023-12-04T08:31:18;99781.56;;;5.89;97.42
70407;BME280;57821;52.202;0.154;2023-12-04T08:33:45;99791.88;;;5.92;97.66
70407;BME280;57821;52.202;0.154;2023-12-04T08:36:12;99792.69;;;5.95;97.82
70407;BME280;57821;52.202;0.154;2023-12-04T08:38:39;99781.53;;;5.84;97.54
70407;BME280;57821;52.202;0.154;2023-12-04T08:41:06;99779.00;;;5.87;97.56
70407;BME280;57821;52.202;0.154;2023-12-04T08:43:33;99779.81;;;5.83;96.90
70407;BME280;57821;52.202;0.154;2023-12-04T08:46:00;99804.72;;;5.95;97.64
70407;BME280;57821;52.202;0.154;2023-12-04T08:48:27;99788.44;;;5.88;97.64
70407;BME280;57821;52.202;0.154;2023-12-04T08:50:54;99782.41;;;5.89;97.40
70407;BME280;57821;52.202;0.154;2023-12-04T08:53:21;99783.28;;;5.90;97.51
70407;BME280;57821;52.202;0.154;2023-12-04T08:55:47;99791.84;;;5.95;97.19
70407;BME280;57821;52.202;0.154;2023-12-04T08:58:14;99791.84;;;5.96;97.72
70407;BME280;57821;52.202;0.154;2023-12-04T09:00:41;99796.16;;;5.97;96.86
70407;BME280;57821;52.202;0.154;2023-12-04T09:03:10;99782.44;;;5.91;97.94
70407;BME280;57821;52.202;0.154;2023-12-04T09:05:47;99793.56;;;5.96;96.69
70407;BME280;57821;52.202;0.154;2023-12-04T09:08:17;99786.69;;;5.89;97.09
70407;BME280;57821;52.202;0.154;2023-12-04T09:11:02;99785.00;;;5.98;96.58
70407;BME280;57821;52.202;0.154;2023-12-04T09:13:48;99789.28;;;5.99;97.21
70407;BME280;57821;52.202;0.154;2023-12-04T09:16:15;99797.88;;;6.00;96.68
70407;BME280;57821;52.202;0.154;2023-12-04T09:18:41;99785.00;;;5.95;97.63
70407;BME280;57821;52.202;0.154;2023-12-04T09:21:08;99785.84;;;5.96;96.77
70407;BME280;57821;52.202;0.154;2023-12-04T09:23:35;99795.28;;;6.03;96.95
70407;BME280;57821;52.202;0.154;2023-12-04T09:26:02;99779.84;;;5.97;97.95
70407;BME280;57821;52.202;0.154;2023-12-04T09:28:29;99790.13;;;6.06;97.87
70407;BME280;57821;52.202;0.154;2023-12-04T09:30:56;99779.88;;;6.00;97.54
70407;BME280;57821;52.202;0.154;2023-12-04T09:33:23;99764.41;;;5.97;97.22
70407;BME280;57821;52.202;0.154;2023-12-04T09:35:50;99783.28;;;6.11;97.77
70407;BME280;57821;52.202;0.154;2023-12-04T09:38:16;99785.84;;;6.11;96.98
70407;BME280;57821;52.202;0.154;2023-12-04T09:40:43;99781.53;;;6.07;96.68
70407;BME280;57821;52.202;0.154;2023-12-04T09:43:10;99781.56;;;6.04;97.45
70407;BME280;57821;52.202;0.154;2023-12-04T09:45:38;99758.41;;;5.92;97.69
70407;BME280;57821;52.202;0.154;2023-12-04T09:48:06;99776.44;;;6.05;97.62
70407;BME280;57821;52.202;0.154;2023-12-04T09:50:33;99769.56;;;5.98;96.64
70407;BME280;57821;52.202;0.154;2023-12-04T09:53:02;99762.69;;;5.97;96.65
70407;BME280;57821;52.202;0.154;2023-12-04T09:55:29;99795.28;;;6.15;97.71
70407;BME280;57821;52.202;0.154;2023-12-04T09:57:57;99802.13;;;6.19;96.79
70407;BME280;57821;52.202;0.154;2023-12-04T10:00:24;99775.53;;;6.06;97.71
70407;BME280;57821;52.202;0.154;2023-12-04T10:02:52;99789.28;;;6.14;97.66
70407;BME280;57821;52.202;0.154;2023-12-04T10:05:19;99796.13;;;6.18;97.98
70407;BME280;57821;52.202;0.154;2023-12-04T10:07:47;99799.53;;;6.25;97.58
70407;BME280;57821;52.202;0.154;2023-12-04T10:10:14;99798.69;;;6.25;97.04
70407;BME280;57821;52.202;0.154;2023-12-04T10:12:42;99784.09;;;6.19;97.21
70407;BME280;57821;52.202;0.154;2023-12-04T10:15:11;99798.69;;;6.32;97.38
70407;BME280;57821;52.202;0.154;2023-12-04T10:17:40;99753.25;;;6.08;97.23
70407;BME280;57821;52.202;0.154;2023-12-04T10:20:15;99797.81;;;6.38;96.98
70407;BME280;57821;52.202;0.154;2023-12-04T10:22:55;99790.97;;;6.40;96.88
70407;BME280;57821;52.202;0.154;2023-12-04T10:25:23;99763.50;;;6.27;97.63
70407;BME280;57821;52.202;0.154;2023-12-04T10:27:52;99798.66;;;6.44;96.82
70407;BME280;57821;52.202;0.154;2023-12-04T10:30:25;99793.50;;;6.47;97.15
70407;BME280;57821;52.202;0.154;2023-12-04T10:32:57;99790.06;;;6.48;97.36
70407;BME280;57821;52.202;0.154;2023-12-04T10:35:32;99778.91;;;6.45;96.69
70407;BME280;57821;52.202;0.154;2023-12-04T10:37:59;99785.78;;;6.52;97.10
70407;BME280;57821;52.202;0.154;2023-12-04T10:40:28;99733.47;;;6.27;96.42
70407;BME280;57821;52.202;0.154;2023-12-04T10:45:38;99768.56;;;6.58;97.19
70407;BME280;57821;52.202;0.154;2023-12-04T10:48:06;99765.13;;;6.59;97.18
70407;BME280;57821;52.202;0.154;2023-12-04T10:50:38;99764.28;;;6.60;96.60
70407;BME280;57821;52.202;0.154;2023-12-04T10:53:08;99760.84;;;6.62;96.78
70407;BME280;57821;52.202;0.154;2023-12-04T10:55:37;99743.69;;;6.54;96.70
70407;BME280;57821;52.202;0.154;2023-12-04T10:58:10;99769.41;;;6.65;96.23
70407;BME280;57821;52.202;0.154;2023-12-04T11:00:48;99758.25;;;6.65;95.98
70407;BME280;57821;52.202;0.154;2023-12-04T11:03:21;99708.53;;;6.41;96.42
70407;BME280;57821;52.202;0.154;2023-12-04T11:06:00;99718.81;;;6.50;95.61
70407;BME280;57821;52.202;0.154;2023-12-04T11:08:33;99743.66;;;6.60;95.62
70407;BME280;57821;52.202;0.154;2023-12-04T11:11:02;99722.25;;;6.51;95.74
70407;BME280;57821;52.202;0.154;2023-12-04T11:13:32;99748.81;;;6.70;95.87
70407;BME280;57821;52.202;0.154;2023-12-04T11:18:44;99741.03;;;6.73;96.15
70407;BME280;57821;52.202;0.154;2023-12-04T11:21:14;99743.59;;;6.76;95.07
70407;BME280;57821;52.202;0.154;2023-12-04T11:23:43;99740.16;;;6.77;95.15
70407;BME280;57821;52.202;0.154;2023-12-04T11:26:11;99729.03;;;6.72;96.26
70407;BME280;57821;52.202;0.154;2023-12-04T11:28:38;99730.72;;;6.76;95.85
70407;BME280;57821;52.202;0.154;2023-12-04T11:31:06;99734.16;;;6.76;95.61
70407;BME280;57821;52.202;0.154;2023-12-04T11:33:37;99736.69;;;6.82;95.78
70407;BME280;57821;52.202;0.154;2023-12-04T11:36:09;99727.25;;;6.83;96.39
70407;BME280;57821;52.202;0.154;2023-12-04T11:38:44;99734.97;;;6.86;95.23
70407;BME280;57821;52.202;0.154;2023-12-04T11:41:24;99713.56;;;6.72;95.76
70407;BME280;57821;52.202;0.154;2023-12-04T11:43:56;99728.97;;;6.85;95.48
70407;BME280;57821;52.202;0.154;2023-12-04T11:46:25;99733.25;;;6.85;95.30
70407;BME280;57821;52.202;0.154;2023-12-04T11:48:57;99732.44;;;6.81;95.06
70407;BME280;57821;52.202;0.154;2023-12-04T11:54:21;99725.56;;;6.79;95.65
70407;BME280;57821;52.202;0.154;2023-12-04T11:59:39;99716.13;;;6.76;94.65
70407;BME280;57821;52.202;0.154;2023-12-04T12:02:07;99715.25;;;6.77;95.01
70407;BME280;57821;52.202;0.154;2023-12-04T12:04:34;99711.81;;;6.80;95.53
70407;BME280;57821;52.202;0.154;2023-12-04T12:07:02;99697.22;;;6.77;94.89
70407;BME280;57821;52.202;0.154;2023-12-04T12:09:33;99686.13;;;6.69;94.87
70407;BME280;57821;52.202;0.154;2023-12-04T12:12:03;99704.06;;;6.83;95.22
70407;BME280;57821;52.202;0.154;2023-12-04T12:14:31;99712.66;;;6.85;95.39
70407;BME280;57821;52.202;0.154;2023-12-04T12:16:59;99716.09;;;6.84;95.07
70407;BME280;57821;52.202;0.154;2023-12-04T12:19:26;99717.84;;;6.80;94.85
70407;BME280;57821;52.202;0.154;2023-12-04T12:21:54;99706.66;;;6.81;94.98
70407;BME280;57821;52.202;0.154;2023-12-04T12:24:23;99703.25;;;6.75;94.90
70407;BME280;57821;52.202;0.154;2023-12-04T12:26:50;99719.53;;;6.83;95.29
70407;BME280;57821;52.202;0.154;2023-12-04T12:29:17;99711.81;;;6.80;95.63
70407;BME280;57821;52.202;0.154;2023-12-04T12:31:44;99708.38;;;6.81;95.54
70407;BME280;57821;52.202;0.154;2023-12-04T12:34:13;99716.09;;;6.82;95.45
70407;BME280;57821;52.202;0.154;2023-12-04T12:36:40;99699.81;;;6.74;95.61
70407;BME280;57821;52.202;0.154;2023-12-04T12:39:07;99700.69;;;6.75;94.87
70407;BME280;57821;52.202;0.154;2023-12-04T12:41:35;99704.94;;;6.77;94.84
70407;BME280;57821;52.202;0.154;2023-12-04T12:44:02;99698.97;;;6.72;95.65
70407;BME280;57821;52.202;0.154;2023-12-04T12:46:30;99713.53;;;6.79;95.79
70407;BME280;57821;52.202;0.154;2023-12-04T12:48:57;99705.81;;;6.81;96.34
70407;BME280;57821;52.202;0.154;2023-12-04T12:51:26;99704.09;;;6.80;95.46
70407;BME280;57821;52.202;0.154;2023-12-04T12:53:53;99707.53;;;6.76;95.30
70407;BME280;57821;52.202;0.154;2023-12-04T12:56:20;99704.94;;;6.77;95.03
70407;BME280;57821;52.202;0.154;2023-12-04T12:58:48;99709.25;;;6.77;95.46
70407;BME280;57821;52.202;0.154;2023-12-04T13:01:16;99709.28;;;6.74;95.36
70407;BME280;57821;52.202;0.154;2023-12-04T13:03:45;99689.59;;;6.64;95.61
70407;BME280;57821;52.202;0.154;2023-12-04T13:06:14;99698.09;;;6.73;96.11
70407;BME280;57821;52.202;0.154;2023-12-04T13:08:40;99687.84;;;6.64;95.69
70407;BME280;57821;52.202;0.154;2023-12-04T13:11:07;99693.00;;;6.69;96.54
70407;BME280;57821;52.202;0.154;2023-12-04T13:13:35;99697.25;;;6.71;95.78
70407;BME280;57821;52.202;0.154;2023-12-04T13:16:02;99701.53;;;6.74;96.47
70407;BME280;57821;52.202;0.154;2023-12-04T13:18:28;99696.38;;;6.72;96.55
70407;BME280;57821;52.202;0.154;2023-12-04T13:20:58;99698.09;;;6.73;95.68